Time;durP1;ratioP1;P1;durP2;ratioP2;P2;SDS_P1;SDS_P2;PMS_P1;PMS_P2;Temp;Humidity;BMP_temperature;BMP_pressure;BME280_temperature;BME280_humidity;BME280_pressure;Samples;Min_cycle;Max_cycle;Signal;HPM_P1;HPM_P2
2022/07/02 00:01:24;;;;;;;8.25;3.25;;;11.50;99.90;;;;;;5049832;28;20040;-52
2022/07/02 00:03:51;;;;;;;6.15;3.10;;;11.60;99.90;;;;;;5050704;28;20044;-52
2022/07/02 00:06:20;;;;;;;5.63;3.10;;;11.50;99.90;;;;;;5035626;28;20044;-54
2022/07/02 00:08:46;;;;;;;4.85;2.78;;;11.50;99.90;;;;;;5049776;28;20040;-54
2022/07/02 00:11:16;;;;;;;9.68;3.85;;;11.40;99.90;;;;;;5050076;28;20017;-53
2022/07/02 00:13:42;;;;;;;8.70;3.33;;;11.40;99.90;;;;;;5050624;28;20353;-53
2022/07/02 00:16:12;;;;;;;5.93;2.88;;;11.40;99.90;;;;;;5032794;28;20053;-53
2022/07/02 00:18:38;;;;;;;2.83;2.63;;;11.50;99.90;;;;;;5051049;28;20064;-52
2022/07/02 00:21:04;;;;;;;8.43;3.10;;;11.50;99.90;;;;;;5049823;28;20051;-53
2022/07/02 00:23:30;;;;;;;7.90;2.28;;;11.50;99.90;;;;;;5049872;28;20036;-55
2022/07/02 00:26:26;;;;;;;6.85;3.33;;;11.50;99.90;;;;;;5053711;28;20049;-54
2022/07/02 00:29:19;;;;;;;6.30;2.70;;;11.40;99.90;;;;;;5047626;28;20039;-51
2022/07/02 00:31:46;;;;;;;4.50;2.65;;;11.40;99.90;;;;;;5054105;28;20052;-53
2022/07/02 00:34:13;;;;;;;10.30;2.70;;;11.30;99.90;;;;;;5053920;28;20032;-54
2022/07/02 00:36:39;;;;;;;5.13;2.50;;;11.20;99.90;;;;;;5053723;28;20037;-50
2022/07/02 00:39:05;;;;;;;5.88;3.35;;;11.20;99.90;;;;;;5053654;28;20029;-55
2022/07/02 00:41:32;;;;;;;16.33;3.25;;;11.20;99.90;;;;;;5053240;28;20036;-55
2022/07/02 00:43:58;;;;;;;4.65;2.83;;;11.20;99.90;;;;;;5052357;28;20442;-54
2022/07/02 00:46:27;;;;;;;5.75;2.88;;;11.10;99.90;;;;;;5052872;28;20033;-50
2022/07/02 00:48:53;;;;;;;7.05;3.13;;;11.10;99.90;;;;;;5053647;28;20009;-51
2022/07/02 00:51:19;;;;;;;4.00;3.63;;;11.10;99.90;;;;;;5053135;28;20025;-50
2022/07/02 00:53:45;;;;;;;3.28;2.97;;;11.20;99.90;;;;;;5053561;28;20024;-50
2022/07/02 00:56:10;;;;;;;4.22;2.47;;;11.10;99.90;;;;;;5053157;28;20052;-50
2022/07/02 00:58:36;;;;;;;3.90;2.50;;;11.10;99.90;;;;;;5053527;28;20029;-50
2022/07/02 01:01:02;;;;;;;6.50;3.45;;;11.10;99.90;;;;;;5053521;28;20033;-50
2022/07/02 01:03:30;;;;;;;6.68;2.70;;;10.90;99.90;;;;;;5033393;28;20115;-52
2022/07/02 01:05:57;;;;;;;6.63;3.70;;;11.00;99.90;;;;;;5033423;28;20032;-50
2022/07/02 01:11:11;;;;;;;5.88;2.75;;;11.00;99.90;;;;;;5033765;28;20128;-51
2022/07/02 01:13:37;;;;;;;4.80;2.50;;;10.90;99.90;;;;;;5037383;28;20024;-51
2022/07/02 01:16:03;;;;;;;14.48;2.60;;;10.90;99.90;;;;;;5052566;28;20121;-52
2022/07/02 01:18:29;;;;;;;6.45;2.83;;;10.90;99.90;;;;;;5052426;28;20149;-52
2022/07/02 01:20:55;;;;;;;4.05;2.63;;;10.80;99.90;;;;;;5052846;28;20029;-52
2022/07/02 01:23:20;;;;;;;5.13;2.80;;;10.80;99.90;;;;;;5034524;28;20118;-52
2022/07/02 01:25:53;;;;;;;11.05;3.17;;;10.80;99.90;;;;;;5052187;28;20025;-51
2022/07/02 01:28:19;;;;;;;10.55;3.10;;;10.90;99.90;;;;;;5052477;28;20048;-50
2022/07/02 01:30:49;;;;;;;4.63;2.53;;;10.80;99.90;;;;;;5052437;28;20361;-51
2022/07/02 01:33:15;;;;;;;5.93;2.78;;;10.80;99.90;;;;;;5052598;28;20025;-53
2022/07/02 01:35:41;;;;;;;3.22;2.97;;;10.80;99.90;;;;;;5051161;28;20025;-54
2022/07/02 01:38:07;;;;;;;3.92;2.50;;;10.80;99.90;;;;;;5052265;28;20017;-54
2022/07/02 01:40:33;;;;;;;7.90;2.60;;;10.70;99.90;;;;;;5034254;28;20029;-53
2022/07/02 01:42:58;;;;;;;8.80;2.80;;;10.70;99.90;;;;;;5034350;28;20120;-51
2022/07/02 01:45:24;;;;;;;34.25;3.70;;;10.70;99.90;;;;;;5051748;28;20025;-53
2022/07/02 01:47:49;;;;;;;2.83;2.40;;;10.70;99.90;;;;;;5051838;28;20025;-53
2022/07/02 01:50:15;;;;;;;10.50;4.60;;;10.60;99.90;;;;;;5051818;28;20372;-54
2022/07/02 01:52:41;;;;;;;54.50;3.90;;;10.60;99.90;;;;;;5051468;28;20031;-53
2022/07/02 01:55:08;;;;;;;31.35;3.55;;;10.70;99.90;;;;;;5051970;28;20017;-50
2022/07/02 01:57:35;;;;;;;14.95;2.85;;;10.60;99.90;;;;;;5052052;28;20032;-50
2022/07/02 02:00:06;;;;;;;53.95;3.20;;;10.50;99.90;;;;;;5051732;28;20025;-54
2022/07/02 02:02:32;;;;;;;24.73;3.05;;;10.50;99.90;;;;;;5051432;28;20025;-51
2022/07/02 02:04:58;;;;;;;35.65;3.72;;;10.60;99.90;;;;;;5051906;28;20117;-52
2022/07/02 02:07:24;;;;;;;49.15;3.55;;;10.60;99.90;;;;;;5051461;28;20108;-51
2022/07/02 02:09:50;;;;;;;64.75;3.33;;;10.50;99.90;;;;;;5051215;28;20101;-52
2022/07/02 02:12:16;;;;;;;87.78;3.53;;;10.60;99.90;;;;;;5051684;28;20013;-52
2022/07/02 02:14:41;;;;;;;42.83;3.08;;;10.50;99.90;;;;;;5051825;28;20108;-52
2022/07/02 02:17:07;;;;;;;145.02;6.15;;;10.60;99.90;;;;;;5052093;28;20028;-51
2022/07/02 02:19:33;;;;;;;37.08;3.20;;;10.50;99.90;;;;;;5051626;28;20473;-50
2022/07/02 02:21:59;;;;;;;28.83;3.10;;;10.50;99.90;;;;;;5051204;28;20033;-53
2022/07/02 02:24:25;;;;;;;19.88;2.50;;;10.50;99.90;;;;;;5043893;28;20111;-53
2022/07/02 02:26:50;;;;;;;11.98;2.17;;;10.50;99.90;;;;;;5049839;28;20036;-51
2022/07/02 02:29:16;;;;;;;69.38;4.15;;;10.50;99.90;;;;;;5051190;28;20025;-52
2022/07/02 02:31:42;;;;;;;89.82;4.00;;;10.40;99.90;;;;;;5050412;28;20029;-51
2022/07/02 02:34:08;;;;;;;10.00;2.90;;;10.30;99.90;;;;;;5050734;28;20033;-53
2022/07/02 02:36:33;;;;;;;31.25;2.92;;;10.30;99.90;;;;;;5049626;28;20033;-51
2022/07/02 02:38:59;;;;;;;29.75;2.90;;;10.30;99.90;;;;;;5050471;28;20021;-51
2022/07/02 02:41:25;;;;;;;22.88;2.53;;;10.40;99.90;;;;;;5050426;28;20341;-51
2022/07/02 02:43:51;;;;;;;28.35;2.85;;;10.30;99.90;;;;;;5051141;28;20650;-52
2022/07/02 02:46:17;;;;;;;27.50;2.80;;;10.20;99.90;;;;;;5049979;28;20028;-55
2022/07/02 02:48:44;;;;;;;23.73;2.50;;;10.30;99.90;;;;;;5049558;28;20060;-51
2022/07/02 02:51:13;;;;;;;2.42;2.30;;;10.20;99.90;;;;;;5049559;28;20479;-52
2022/07/02 02:53:42;;;;;;;8.77;2.00;;;10.20;99.90;;;;;;5050351;28;20479;-50
2022/07/02 02:56:08;;;;;;;37.63;2.88;;;10.30;99.90;;;;;;5050037;28;20056;-50
2022/07/02 02:58:34;;;;;;;80.95;3.60;;;10.30;99.90;;;;;;5050662;28;20472;-52
2022/07/02 03:01:00;;;;;;;161.40;5.53;;;10.30;99.90;;;;;;5050108;28;20033;-51
2022/07/02 03:03:26;;;;;;;218.30;6.90;;;10.30;99.90;;;;;;5049350;28;20028;-50
2022/07/02 03:05:52;;;;;;;9.63;2.13;;;10.30;99.90;;;;;;5050157;28;20021;-51
2022/07/02 03:08:18;;;;;;;27.27;2.13;;;10.20;99.90;;;;;;5049751;28;20055;-50
2022/07/02 03:10:43;;;;;;;14.68;1.90;;;10.10;99.90;;;;;;5051087;28;20496;-51
2022/07/02 03:13:09;;;;;;;23.50;2.40;;;10.00;99.90;;;;;;5050255;28;20049;-53
2022/07/02 03:15:35;;;;;;;42.65;2.75;;;10.00;99.90;;;;;;5050518;28;20052;-52
2022/07/02 03:18:01;;;;;;;14.40;2.05;;;10.00;99.90;;;;;;5033319;28;20124;-51
2022/07/02 03:20:27;;;;;;;1.52;1.40;;;10.00;99.90;;;;;;5032873;28;20124;-53
2022/07/02 03:22:53;;;;;;;32.95;2.33;;;10.00;99.90;;;;;;5051032;28;20410;-52
2022/07/02 03:25:18;;;;;;;13.65;2.15;;;10.00;99.90;;;;;;5050682;28;20024;-53
2022/07/02 03:27:44;;;;;;;3.95;1.80;;;10.00;99.90;;;;;;5050960;28;20056;-52
2022/07/02 03:30:10;;;;;;;1.65;1.42;;;9.90;99.90;;;;;;5051031;28;20032;-54
2022/07/02 03:32:36;;;;;;;2.00;1.85;;;9.80;99.90;;;;;;5051053;28;20088;-54
2022/07/02 03:35:01;;;;;;;6.93;1.73;;;9.80;99.90;;;;;;5050545;28;20437;-53
2022/07/02 03:37:28;;;;;;;1.52;1.42;;;9.80;99.90;;;;;;5050595;28;20033;-50
2022/07/02 03:39:54;;;;;;;3.83;1.92;;;9.80;99.90;;;;;;5050425;28;20033;-54
2022/07/02 03:42:20;;;;;;;2.45;1.58;;;9.80;99.90;;;;;;5049403;28;20033;-52
2022/07/02 03:44:46;;;;;;;1.90;1.80;;;9.80;99.90;;;;;;5049439;28;20373;-53
2022/07/02 03:47:11;;;;;;;5.30;1.92;;;9.90;99.90;;;;;;5049795;28;20025;-52
2022/07/02 03:49:37;;;;;;;1.88;1.70;;;9.90;99.90;;;;;;5032489;28;20608;-52
2022/07/02 03:52:03;;;;;;;3.22;2.15;;;10.00;99.90;;;;;;5050425;28;20017;-52
2022/07/02 03:54:29;;;;;;;4.82;2.00;;;10.00;99.90;;;;;;5050951;28;20544;-50
2022/07/02 03:56:55;;;;;;;10.18;3.35;;;10.00;99.90;;;;;;5050344;28;20029;-52
2022/07/02 03:59:21;;;;;;;14.13;2.15;;;10.10;99.90;;;;;;5052829;28;20033;-50
2022/07/02 04:01:47;;;;;;;11.13;1.50;;;10.30;99.90;;;;;;5053870;28;20730;-50
2022/07/02 04:04:12;;;;;;;24.02;2.05;;;10.30;99.90;;;;;;5053810;28;20029;-53
2022/07/02 04:06:38;;;;;;;3.78;1.90;;;10.30;99.90;;;;;;5054231;28;20040;-53
2022/07/02 04:09:04;;;;;;;5.00;1.77;;;10.30;99.90;;;;;;5036630;28;20025;-54
2022/07/02 04:11:29;;;;;;;8.73;1.70;;;10.40;99.90;;;;;;5035975;28;20024;-54
2022/07/02 04:13:55;;;;;;;138.32;5.68;;;10.40;99.90;;;;;;5033660;28;20110;-52
2022/07/02 04:16:21;;;;;;;194.70;6.50;;;10.50;99.90;;;;;;5046361;28;20122;-52
2022/07/02 04:18:46;;;;;;;18.02;2.35;;;10.50;99.90;;;;;;5052130;28;20021;-52
2022/07/02 04:21:12;;;;;;;76.50;3.47;;;10.60;99.90;;;;;;5053384;28;20025;-52
2022/07/02 04:23:38;;;;;;;65.30;3.58;;;10.70;99.90;;;;;;5053367;28;20108;-52
2022/07/02 04:26:05;;;;;;;113.53;4.63;;;10.70;99.90;;;;;;5052815;28;20472;-51
2022/07/02 04:28:31;;;;;;;30.98;2.40;;;10.70;99.90;;;;;;5053069;28;20056;-55
2022/07/02 04:30:57;;;;;;;72.32;2.50;;;10.70;99.90;;;;;;5052826;28;20033;-54
2022/07/02 04:33:23;;;;;;;5.47;1.63;;;10.70;99.90;;;;;;5051651;28;20079;-53
2022/07/02 04:35:49;;;;;;;8.43;2.22;;;10.70;99.90;;;;;;5058787;22;20084;-52
2022/07/02 04:38:14;;;;;;;21.58;2.40;;;10.80;99.90;;;;;;5052348;28;20033;-53
2022/07/02 04:40:40;;;;;;;2.33;1.90;;;10.90;99.90;;;;;;5052212;28;20028;-53
2022/07/02 04:43:06;;;;;;;5.90;1.83;;;10.90;99.90;;;;;;5052841;28;20018;-51
2022/07/02 04:45:31;;;;;;;2.22;2.03;;;11.00;99.90;;;;;;5053562;28;20052;-54
2022/07/02 04:47:57;;;;;;;2.08;1.88;;;11.00;99.90;;;;;;5052453;28;20499;-52
2022/07/02 04:50:23;;;;;;;5.47;1.80;;;11.10;99.90;;;;;;5053027;28;20033;-53
2022/07/02 04:52:48;;;;;;;1.98;1.77;;;11.10;99.90;;;;;;5053400;28;20029;-51
2022/07/02 04:55:15;;;;;;;3.50;2.10;;;11.20;99.90;;;;;;5053117;28;20469;-54
2022/07/02 04:57:41;;;;;;;1.83;1.73;;;11.30;99.90;;;;;;5051774;28;20368;-53
2022/07/02 05:00:08;;;;;;;1.83;1.65;;;11.50;99.90;;;;;;5052345;28;20018;-52
2022/07/02 05:02:34;;;;;;;2.20;1.80;;;11.50;99.90;;;;;;5052047;28;20021;-52
2022/07/02 05:05:01;;;;;;;1.52;1.42;;;11.60;99.90;;;;;;5053048;28;20052;-55
2022/07/02 05:07:27;;;;;;;1.92;1.60;;;11.70;99.90;;;;;;5053211;28;20021;-56
2022/07/02 05:09:52;;;;;;;1.30;1.30;;;11.80;99.90;;;;;;5052101;28;20356;-53
2022/07/02 05:12:18;;;;;;;3.05;1.90;;;11.90;99.90;;;;;;5053032;28;20025;-51
2022/07/02 05:14:44;;;;;;;3.50;1.90;;;12.00;99.90;;;;;;5053242;28;20025;-53
2022/07/02 05:17:09;;;;;;;5.32;2.03;;;12.10;99.90;;;;;;5052775;28;20111;-52
2022/07/02 05:19:35;;;;;;;11.98;1.80;;;12.40;99.90;;;;;;5052782;28;20044;-50
2022/07/02 05:22:01;;;;;;;2.70;2.03;;;12.50;99.90;;;;;;5052798;28;20040;-54
2022/07/02 05:24:27;;;;;;;1.67;1.58;;;12.60;99.90;;;;;;5052808;28;20394;-54
2022/07/02 05:26:52;;;;;;;1.80;1.70;;;12.60;99.90;;;;;;5051426;28;20032;-56
2022/07/02 05:29:18;;;;;;;2.33;1.80;;;12.70;99.90;;;;;;5051796;28;20021;-51
2022/07/02 05:31:44;;;;;;;4.35;1.75;;;12.70;99.90;;;;;;5051548;28;20096;-52
2022/07/02 05:34:12;;;;;;;5.32;1.92;;;12.70;99.90;;;;;;5051631;28;20021;-51
2022/07/02 05:36:38;;;;;;;5.53;1.80;;;12.80;99.90;;;;;;5051539;28;20048;-50
2022/07/02 05:39:03;;;;;;;2.10;1.90;;;12.80;99.90;;;;;;5051817;28;20029;-52
2022/07/02 05:41:29;;;;;;;2.13;1.70;;;12.80;99.90;;;;;;5052089;28;20040;-52
2022/07/02 05:43:55;;;;;;;2.40;1.70;;;12.90;99.90;;;;;;5051058;28;20032;-52
2022/07/02 05:46:20;;;;;;;1.88;1.77;;;13.00;99.90;;;;;;5051170;28;20025;-50
2022/07/02 05:48:46;;;;;;;1.80;1.70;;;13.10;99.90;;;;;;5051456;28;20017;-54
2022/07/02 05:51:12;;;;;;;2.13;1.85;;;13.20;99.90;;;;;;5051474;28;20633;-51
2022/07/02 05:53:37;;;;;;;2.70;2.40;;;13.40;99.90;;;;;;5052011;28;20078;-53
2022/07/02 05:56:03;;;;;;;1.88;1.77;;;13.40;99.90;;;;;;5053320;28;20052;-55
2022/07/02 05:58:29;;;;;;;2.20;2.00;;;13.50;99.90;;;;;;5051287;28;20126;-55
2022/07/02 06:00:55;;;;;;;3.05;2.08;;;13.60;99.90;;;;;;5051569;28;20451;-54
2022/07/02 06:03:21;;;;;;;2.53;2.33;;;13.80;99.90;;;;;;5069817;28;20437;-53
2022/07/02 06:08:31;;;;;;;4.25;3.65;;;14.10;99.90;;;;;;5070103;28;20031;-54
2022/07/02 06:10:56;;;;;;;3.70;3.40;;;14.20;99.90;;;;;;5069834;28;20044;-52
2022/07/02 06:13:22;;;;;;;4.50;4.10;;;14.40;99.90;;;;;;5041535;28;20060;-51
2022/07/02 06:15:48;;;;;;;4.30;3.40;;;14.50;99.90;;;;;;5051150;28;20457;-53
2022/07/02 06:18:13;;;;;;;6.25;3.35;;;14.70;99.90;;;;;;5051394;28;20021;-51
2022/07/02 06:20:39;;;;;;;5.53;3.90;;;14.80;99.90;;;;;;5051415;28;20021;-51
2022/07/02 06:23:05;;;;;;;6.15;3.88;;;15.00;99.90;;;;;;5050553;28;20110;-51
2022/07/02 06:25:31;;;;;;;7.13;4.38;;;15.10;99.90;;;;;;5050879;28;20059;-56
2022/07/02 06:27:57;;;;;;;5.80;4.50;;;15.30;99.90;;;;;;5050964;28;20421;-55
2022/07/02 06:30:23;;;;;;;4.90;4.35;;;15.40;99.90;;;;;;5050584;28;20211;-54
2022/07/02 06:32:49;;;;;;;4.38;3.80;;;15.40;99.90;;;;;;5050935;28;20024;-56
2022/07/02 06:35:16;;;;;;;6.90;3.90;;;15.50;99.90;;;;;;5050894;28;20394;-50
2022/07/02 06:37:42;;;;;;;5.60;3.50;;;15.50;99.90;;;;;;5049543;28;20052;-53
2022/07/02 06:40:08;;;;;;;3.42;3.13;;;15.50;99.90;;;;;;5050309;28;20021;-52
2022/07/02 06:42:34;;;;;;;3.65;3.28;;;15.60;99.90;;;;;;5050003;28;20036;-50
2022/07/02 06:45:00;;;;;;;4.65;3.60;;;15.70;99.90;;;;;;5050227;28;20064;-49
2022/07/02 06:47:27;;;;;;;4.75;3.00;;;15.80;99.90;;;;;;5050431;28;20380;-56
2022/07/02 06:49:58;;;;;;;5.55;3.22;;;15.90;99.90;;;;;;5050816;28;20456;-51
2022/07/02 06:52:24;;;;;;;3.60;3.28;;;16.00;99.90;;;;;;5050067;28;20100;-51
2022/07/02 06:54:50;;;;;;;3.38;3.00;;;16.20;99.90;;;;;;5049882;28;20425;-53
2022/07/02 06:57:16;;;;;;;7.43;4.60;;;16.30;99.90;;;;;;5050103;28;20060;-55
2022/07/02 06:59:42;;;;;;;3.38;2.95;;;16.40;99.90;;;;;;5050427;28;20025;-51
2022/07/02 07:02:08;;;;;;;4.10;3.60;;;16.50;99.90;;;;;;5050338;28;20365;-51
2022/07/02 07:04:35;;;;;;;3.50;3.20;;;16.50;99.90;;;;;;5049865;28;20660;-52
2022/07/02 07:07:03;;;;;;;4.13;3.67;;;16.30;99.90;;;;;;5050358;28;20025;-52
2022/07/02 07:09:30;;;;;;;5.35;3.45;;;16.40;99.90;;;;;;5049778;28;20025;-56
2022/07/02 07:11:56;;;;;;;4.22;3.67;;;16.50;99.90;;;;;;5048950;28;20021;-51
2022/07/02 07:14:23;;;;;;;4.50;2.83;;;16.60;99.90;;;;;;5048992;28;20048;-54
2022/07/02 07:16:49;;;;;;;3.92;2.80;;;16.60;99.90;;;;;;5049750;28;20029;-50
2022/07/02 07:19:14;;;;;;;2.78;2.53;;;16.80;99.90;;;;;;5031538;28;20079;-52
2022/07/02 07:21:41;;;;;;;5.00;3.10;;;16.80;99.90;;;;;;5050005;28;20522;-52
2022/07/02 07:24:09;;;;;;;3.15;2.85;;;16.90;99.90;;;;;;5031966;28;20029;-52
2022/07/02 07:26:36;;;;;;;5.82;3.22;;;16.90;99.90;;;;;;5049890;28;20423;-52
2022/07/02 07:29:01;;;;;;;3.60;2.88;;;17.10;99.90;;;;;;5049713;28;20001;-52
2022/07/02 07:31:28;;;;;;;3.38;2.60;;;17.20;99.90;;;;;;5032634;28;20021;-52
2022/07/02 07:33:56;;;;;;;7.30;2.72;;;17.30;99.90;;;;;;5057975;28;20029;-51
2022/07/02 07:36:23;;;;;;;6.97;3.22;;;17.20;99.90;;;;;;5072151;28;20033;-54
2022/07/02 07:38:50;;;;;;;11.15;3.60;;;17.20;99.90;;;;;;5054051;28;20539;-53
2022/07/02 07:41:17;;;;;;;5.03;2.58;;;17.20;99.90;;;;;;5053769;28;20415;-55
2022/07/02 07:43:42;;;;;;;5.32;2.88;;;17.20;99.90;;;;;;5053767;28;20035;-51
2022/07/02 07:46:08;;;;;;;4.38;3.00;;;17.40;99.90;;;;;;5053654;28;20456;-55
2022/07/02 07:48:34;;;;;;;6.60;2.53;;;17.60;99.90;;;;;;5035844;28;20108;-55
2022/07/02 07:51:00;;;;;;;3.55;3.20;;;17.70;99.90;;;;;;5053779;28;20036;-54
2022/07/02 07:53:26;;;;;;;2.80;2.60;;;17.70;99.90;;;;;;5054180;28;20059;-53
2022/07/02 07:55:52;;;;;;;3.25;2.05;;;17.60;99.90;;;;;;5053622;28;20021;-53
2022/07/02 07:58:18;;;;;;;3.17;2.67;;;17.60;99.90;;;;;;5053381;28;20029;-53
2022/07/02 08:00:45;;;;;;;3.08;2.83;;;17.70;99.90;;;;;;5017927;28;20393;-52
2022/07/02 08:03:11;;;;;;;2.60;2.30;;;17.70;99.90;;;;;;5053421;28;20029;-56
2022/07/02 08:05:37;;;;;;;13.85;8.07;;;17.90;99.90;;;;;;5052943;28;20111;-49
2022/07/02 08:08:03;;;;;;;2.05;1.77;;;18.00;99.90;;;;;;5052716;28;20116;-52
2022/07/02 08:10:29;;;;;;;3.00;2.65;;;18.10;99.90;;;;;;5049906;28;20403;-52
2022/07/02 08:12:55;;;;;;;3.60;2.72;;;18.10;99.90;;;;;;5052565;28;20016;-52
2022/07/02 08:15:39;;;;;;;1.65;1.55;;;18.00;99.90;;;;;;5035309;28;20025;-53
2022/07/02 08:18:04;;;;;;;2.10;1.90;;;18.20;99.90;;;;;;5034828;28;20024;-54
2022/07/02 08:20:30;;;;;;;3.35;1.63;;;18.30;99.90;;;;;;5035422;28;20033;-52
2022/07/02 08:22:56;;;;;;;2.47;1.70;;;18.50;99.90;;;;;;5053485;28;20021;-52
2022/07/02 08:25:22;;;;;;;1.98;1.48;;;18.40;99.90;;;;;;5053790;28;20040;-54
2022/07/02 08:27:47;;;;;;;2.20;1.40;;;18.40;99.90;;;;;;5035035;28;20429;-53
2022/07/02 08:30:13;;;;;;;2.78;1.63;;;18.40;99.90;;;;;;5033779;28;20022;-54
2022/07/02 08:32:40;;;;;;;1.25;1.17;;;18.40;99.90;;;;;;5032791;28;20382;-54
2022/07/02 08:35:06;;;;;;;1.98;1.20;;;18.50;99.90;;;;;;5033006;28;20029;-54
2022/07/02 08:37:32;;;;;;;2.75;2.00;;;18.70;99.90;;;;;;5033850;28;20128;-52
2022/07/02 08:39:58;;;;;;;2.13;1.60;;;18.90;99.90;;;;;;5053394;28;20105;-51
2022/07/02 08:42:26;;;;;;;1.33;1.15;;;19.00;99.90;;;;;;5054066;28;20056;-51
2022/07/02 08:45:00;;;;;;;5.38;1.83;;;19.00;99.90;;;;;;5052616;28;20514;-54
2022/07/02 08:47:27;;;;;;;2.38;1.90;;;19.30;99.90;;;;;;5053061;28;20482;-50
2022/07/02 08:49:54;;;;;;;3.33;1.83;;;19.10;99.90;;;;;;5052548;28;20027;-52
2022/07/02 08:52:22;;;;;;;3.85;2.65;;;19.20;99.90;;;;;;5034240;28;20052;-55
2022/07/02 08:54:48;;;;;;;1.80;1.70;;;19.50;99.90;;;;;;5052600;28;20078;-53
2022/07/02 08:57:15;;;;;;;3.63;2.35;;;19.40;99.90;;;;;;5052457;28;20048;-54
2022/07/02 08:59:41;;;;;;;3.00;2.70;;;19.30;99.90;;;;;;5053256;28;20224;-56
2022/07/02 09:02:08;;;;;;;2.47;2.13;;;19.40;99.90;;;;;;5053522;28;20029;-53
2022/07/02 09:04:34;;;;;;;5.65;5.25;;;19.50;99.90;;;;;;5036984;28;20546;-51
2022/07/02 09:07:03;;;;;;;2.80;2.40;;;19.80;99.90;;;;;;5033000;28;20036;-55
2022/07/02 09:09:30;;;;;;;3.58;1.65;;;19.70;99.90;;;;;;5033101;28;20086;-55
2022/07/02 09:11:57;;;;;;;2.83;1.98;;;19.80;99.90;;;;;;5033068;28;20017;-53
2022/07/02 09:14:23;;;;;;;2.40;1.75;;;19.90;99.90;;;;;;5032782;28;20032;-54
2022/07/02 09:16:49;;;;;;;3.67;1.90;;;19.80;99.90;;;;;;5049713;28;20031;-56
2022/07/02 09:19:17;;;;;;;3.00;1.95;;;20.10;99.90;;;;;;5034928;28;20044;-55
2022/07/02 09:21:47;;;;;;;2.67;2.03;;;20.30;99.90;;;;;;5052870;28;20025;-51
2022/07/02 09:24:14;;;;;;;3.38;1.70;;;20.50;99.90;;;;;;5038157;28;20025;-51
2022/07/02 09:26:39;;;;;;;1.80;1.60;;;20.60;99.90;;;;;;5034303;28;20021;-51
2022/07/02 09:29:05;;;;;;;7.18;1.42;;;20.70;99.90;;;;;;5032801;28;20014;-52
2022/07/02 09:31:32;;;;;;;6.00;1.52;;;20.80;99.90;;;;;;5043090;28;20572;-52
2022/07/02 09:33:59;;;;;;;3.85;1.60;;;21.00;99.90;;;;;;5052511;28;20043;-55
2022/07/02 09:36:25;;;;;;;4.55;1.70;;;21.10;99.90;;;;;;5052672;28;20053;-55
2022/07/02 09:38:52;;;;;;;1.35;1.25;;;21.40;99.90;;;;;;5045444;28;20021;-54
2022/07/02 09:41:21;;;;;;;3.30;1.30;;;21.50;99.90;;;;;;5052713;28;20096;-52
2022/07/02 09:43:59;;;;;;;2.40;1.23;;;21.30;97.30;;;;;;5052373;28;20047;-53
2022/07/02 09:46:25;;;;;;;2.45;1.40;;;21.50;99.50;;;;;;5052550;28;20029;-55
2022/07/02 09:48:51;;;;;;;2.80;1.10;;;21.40;99.70;;;;;;5052404;28;20005;-57
2022/07/02 09:51:18;;;;;;;3.35;1.98;;;21.60;98.10;;;;;;5052439;28;20021;-57
2022/07/02 09:53:55;;;;;;;1.55;1.40;;;21.60;96.40;;;;;;5047800;28;20124;-55
2022/07/02 09:56:22;;;;;;;1.15;1.05;;;21.70;96.80;;;;;;5051487;28;20036;-51
2022/07/02 09:58:49;;;;;;;1.52;1.00;;;21.90;96.20;;;;;;5046786;28;20357;-53
2022/07/02 10:01:23;;;;;;;2.78;1.00;;;21.90;97.00;;;;;;5032335;28;20029;-57
2022/07/02 10:03:52;;;;;;;;;;;22.20;99.00;;;;;;5032964;28;20025;-56
2022/07/02 10:06:19;;;;;;;0.95;0.95;;;22.40;96.70;;;;;;5036538;28;19916;-57
2022/07/02 10:08:45;;;;;;;3.70;1.00;;;22.40;97.50;;;;;;5052151;28;20044;-54
2022/07/02 10:11:14;;;;;;;23.63;16.13;;;22.60;96.00;;;;;;5044280;28;20017;-55
2022/07/02 10:13:41;;;;;;;3.42;1.55;;;22.70;97.00;;;;;;5032070;28;20469;-58
2022/07/02 10:16:19;;;;;;;1.75;0.93;;;22.70;95.40;;;;;;5037464;28;20056;-57
2022/07/02 10:18:45;;;;;;;6.03;0.98;;;22.70;93.50;;;;;;5052177;28;20491;-54
2022/07/02 10:21:13;;;;;;;0.98;0.68;;;22.70;93.30;;;;;;5051782;28;20021;-58
2022/07/02 10:23:40;;;;;;;0.75;0.75;;;22.90;96.00;;;;;;5051839;28;20128;-54
2022/07/02 10:26:05;;;;;;;3.42;0.70;;;22.70;93.40;;;;;;5033939;28;20048;-55
2022/07/02 10:28:33;;;;;;;1.58;0.85;;;22.70;91.60;;;;;;5051639;28;20054;-54
2022/07/02 10:30:59;;;;;;;0.90;0.90;;;22.70;92.70;;;;;;5051840;28;20016;-57
2022/07/02 10:33:46;;;;;;;4.00;0.90;;;23.10;93.00;;;;;;5051580;28;20037;-57
2022/07/02 10:36:15;;;;;;;1.42;0.93;;;23.50;93.40;;;;;;5051384;28;20045;-55
2022/07/02 10:38:41;;;;;;;3.28;1.10;;;23.50;92.90;;;;;;5033732;28;20484;-54
2022/07/02 10:41:09;;;;;;;1.75;0.82;;;23.50;93.40;;;;;;5050593;28;20037;-55
2022/07/02 10:43:38;;;;;;;1.45;0.82;;;23.60;93.10;;;;;;5051087;28;20029;-56
2022/07/02 10:46:05;;;;;;;3.30;1.08;;;23.80;93.20;;;;;;5051435;28;20021;-55
2022/07/02 10:48:34;;;;;;;1.40;0.90;;;23.80;92.20;;;;;;5036172;28;20471;-55
2022/07/02 10:51:01;;;;;;;1.63;0.85;;;23.90;91.90;;;;;;5031461;28;20026;-55
2022/07/02 10:53:28;;;;;;;6.65;0.60;;;23.90;90.80;;;;;;5031437;28;20029;-56
2022/07/02 10:55:59;;;;;;;1.40;0.93;;;24.20;91.10;;;;;;5033740;28;20040;-54
2022/07/02 10:58:27;;;;;;;7.97;1.00;;;24.20;91.10;;;;;;5033672;28;20021;-57
2022/07/02 11:00:53;;;;;;;2.05;0.70;;;24.10;90.10;;;;;;5048440;28;20016;-54
2022/07/02 11:03:24;;;;;;;2.45;1.08;;;24.40;90.10;;;;;;5047930;28;20032;-53
2022/07/02 11:05:57;;;;;;;3.25;0.75;;;24.30;87.90;;;;;;5057793;28;20017;-56
2022/07/02 11:08:44;;;;;;;2.40;0.70;;;24.50;87.40;;;;;;5043224;28;20046;-52
2022/07/02 11:11:40;;;;;;;1.85;0.80;;;24.50;86.90;;;;;;5057058;28;20022;-56
2022/07/02 11:14:17;;;;;;;1.17;0.70;;;24.50;85.10;;;;;;5051803;28;20029;-54
2022/07/02 11:16:49;;;;;;;5.63;0.80;;;24.30;85.40;;;;;;5054193;28;20005;-52
2022/07/02 11:19:25;;;;;;;0.88;0.70;;;24.10;82.00;;;;;;5053967;28;20409;-53
2022/07/02 11:21:57;;;;;;;1.88;1.00;;;23.90;82.30;;;;;;5053256;28;20025;-55
2022/07/02 11:24:29;;;;;;;4.97;0.70;;;24.10;83.50;;;;;;5054343;28;20040;-55
2022/07/02 11:26:55;;;;;;;1.70;0.95;;;24.50;86.90;;;;;;5053890;28;20047;-57
2022/07/02 11:29:21;;;;;;;1.42;1.20;;;24.40;81.60;;;;;;5051879;28;20683;-55
2022/07/02 11:31:49;;;;;;;1.02;0.93;;;24.40;80.10;;;;;;5052089;28;20025;-55
2022/07/02 11:34:20;;;;;;;1.25;1.00;;;24.50;81.20;;;;;;5053802;28;20368;-57
2022/07/02 11:36:46;;;;;;;1.77;1.00;;;24.80;83.70;;;;;;5040564;28;20034;-55
2022/07/02 11:39:14;;;;;;;2.35;0.90;;;24.90;79.20;;;;;;5037984;28;20067;-52
2022/07/02 11:41:41;;;;;;;0.70;0.70;;;25.00;76.50;;;;;;5047004;28;20036;-52
2022/07/02 11:44:17;;;;;;;1.55;0.75;;;25.10;80.80;;;;;;5052256;28;20495;-54
2022/07/02 11:46:48;;;;;;;2.33;0.73;;;25.30;77.10;;;;;;5054611;28;20015;-52
2022/07/02 11:49:22;;;;;;;2.85;0.80;;;25.50;79.20;;;;;;5050956;28;20381;-54
2022/07/02 11:51:49;;;;;;;1.13;1.02;;;25.30;77.40;;;;;;5049373;28;20029;-55
2022/07/02 11:54:16;;;;;;;4.05;0.70;;;25.10;73.40;;;;;;5049094;28;20507;-52
2022/07/02 11:56:43;;;;;;;0.70;0.70;;;25.40;71.50;;;;;;5049309;28;20099;-54
2022/07/02 11:59:14;;;;;;;2.67;0.88;;;25.40;72.60;;;;;;5031525;28;20029;-52
2022/07/02 12:01:42;;;;;;;1.92;0.80;;;25.60;73.70;;;;;;5047700;28;20119;-56
2022/07/02 12:04:14;;;;;;;1.02;0.65;;;25.40;71.00;;;;;;5048296;28;20112;-56
2022/07/02 12:06:42;;;;;;;0.77;0.75;;;25.30;71.10;;;;;;5049010;28;20020;-51
2022/07/02 12:09:09;;;;;;;0.60;0.60;;;25.60;71.80;;;;;;5049019;28;20052;-56
2022/07/02 12:11:37;;;;;;;3.65;0.50;;;25.70;73.60;;;;;;5049913;28;20021;-58
2022/07/02 12:14:05;;;;;;;0.50;0.50;;;26.00;69.60;;;;;;5049072;28;20021;-55
2022/07/02 12:16:32;;;;;;;1.10;0.70;;;26.20;66.60;;;;;;5049905;28;20071;-54
2022/07/02 12:19:03;;;;;;;0.88;0.68;;;26.10;66.70;;;;;;5049802;28;20215;-54
2022/07/02 12:21:49;;;;;;;4.82;0.70;;;26.70;66.40;;;;;;5053159;28;20025;-55
2022/07/02 12:24:27;;;;;;;4.22;0.80;;;27.80;65.60;;;;;;5035519;28;20029;-54
2022/07/02 12:27:04;;;;;;;2.92;0.52;;;27.80;65.20;;;;;;5052964;28;20017;-51
2022/07/02 12:32:27;;;;;;;1.58;0.60;;;28.80;62.50;;;;;;5053090;28;20051;-56
2022/07/02 12:34:55;;;;;;;1.27;0.38;;;29.00;59.10;;;;;;5033184;28;20036;-57
2022/07/02 12:37:26;;;;;;;0.95;0.50;;;29.10;57.60;;;;;;5032613;28;20045;-56
2022/07/02 12:40:15;;;;;;;0.35;0.35;;;28.90;56.20;;;;;;5032802;28;20443;-57
2022/07/02 12:42:55;;;;;;;1.00;0.60;;;29.60;55.10;;;;;;5032399;28;20492;-55
2022/07/02 12:45:35;;;;;;;24.08;1.23;;;30.30;56.50;;;;;;5032751;28;20041;-56
2022/07/02 12:48:14;;;;;;;7.95;0.50;;;30.30;55.40;;;;;;5033027;28;20017;-58
2022/07/02 12:50:42;;;;;;;1.08;0.40;;;30.70;55.20;;;;;;5032599;28;20496;-56
2022/07/02 12:53:21;;;;;;;3.60;0.80;;;31.10;55.00;;;;;;5032500;28;20030;-58
2022/07/02 12:56:02;;;;;;;2.65;0.50;;;31.50;51.10;;;;;;5032269;28;20021;-57